57.0°F
Current conditions from King Hill
Updated every 5 minutes
 
  Saturday October 25, 2014

Station Historical Data
Daily Summary for April 23, 2012 Units:  Both    English   Metric
« Previous Day
Next Day »
Daily Weekly Monthly Yearly Custom
  High: Low: Average:
Temperature: 55.8 °F /  13.2 °C 35.4 °F /  1.9 °C 44.5 °F /  6.9 °C
Dew Point: 50.1 °F /  10.1 °C 33.8 °F /  1 °C 41.9 °F /  5.5 °C
Humidity: 96% 79% 91%
Wind Speed: 8.0mph /  12.9km/h - 2mph /  3.2km/h
Wind Gust: 16.0mph /  25.7km/h - -
Wind- - SE
Pressure: 29.77 in /  1008 hPa 29.17 in /  987.7 hPa -
Precipitation: 0.87 in /  22.1 mm    
Historical Graphs
 
 
Tabular Data for April 23, 2012
Time Temperature Dew Point Pressure Wind Wind Speed Wind Gust Humidity Daily Rainfall
00:04 35.6 °F /  2 °C 33.8 °F /  1 °C 29.77in /  1008hPa NE 1.0mph /  1.6km/h 8.0mph /  12.9km/h 93% 0.01in /  0.3mm
00:09 35.6 °F /  2 °C 33.8 °F /  1 °C 29.77in /  1008hPa NNE 2.0mph /  3.2km/h 11.0mph /  17.7km/h 93% 0.01in /  0.3mm
00:14 35.6 °F /  2 °C 33.8 °F /  1 °C 29.77in /  1008hPa North 1.0mph /  1.6km/h 11.0mph /  17.7km/h 93% 0.01in /  0.3mm
00:19 35.6 °F /  2 °C 33.8 °F /  1 °C 29.77in /  1008hPa NNE 2.0mph /  3.2km/h 9.0mph /  14.5km/h 93% 0.02in /  0.5mm
00:24 35.6 °F /  2 °C 33.8 °F /  1 °C 29.76in /  1007.7hPa NNE 1.0mph /  1.6km/h 9.0mph /  14.5km/h 93% 0.03in /  0.8mm
00:29 35.6 °F /  2 °C 33.8 °F /  1 °C 29.76in /  1007.7hPa NE 1.0mph /  1.6km/h 9.0mph /  14.5km/h 93% 0.03in /  0.8mm
00:34 35.6 °F /  2 °C 33.8 °F /  1 °C 29.76in /  1007.7hPa NNE 1.0mph /  1.6km/h 6.0mph /  9.7km/h 93% 0.03in /  0.8mm
00:44 35.6 °F /  2 °C 33.8 °F /  1 °C 29.75in /  1007.3hPa NE 2.0mph /  3.2km/h 7.0mph /  11.3km/h 93% 0.05in /  1.3mm
00:49 35.6 °F /  2 °C 33.8 °F /  1 °C 29.75in /  1007.3hPa NE 2.0mph /  3.2km/h 7.0mph /  11.3km/h 93% 0.06in /  1.5mm
00:54 35.6 °F /  2 °C 33.8 °F /  1 °C 29.74in /  1007hPa NNE 1.0mph /  1.6km/h 7.0mph /  11.3km/h 93% 0.07in /  1.8mm
00:59 35.6 °F /  2 °C 33.8 °F /  1 °C 29.73in /  1006.7hPa NNE 1.0mph /  1.6km/h 7.0mph /  11.3km/h 93% 0.07in /  1.8mm
01:04 35.6 °F /  2 °C 34.0 °F /  1.1 °C 29.73in /  1006.7hPa NE 1.0mph /  1.6km/h 7.0mph /  11.3km/h 94% 0.08in /  2mm
01:09 35.6 °F /  2 °C 34.0 °F /  1.1 °C 29.72in /  1006.3hPa North 3.0mph /  4.8km/h 10.0mph /  16.1km/h 94% 0.09in /  2.3mm
01:14 35.6 °F /  2 °C 34.0 °F /  1.1 °C 29.71in /  1006hPa NNE 4.0mph /  6.4km/h 10.0mph /  16.1km/h 94% 0.09in /  2.3mm
01:19 35.6 °F /  2 °C 34.0 °F /  1.1 °C 29.70in /  1005.6hPa NNE 4.0mph /  6.4km/h 10.0mph /  16.1km/h 94% 0.11in /  2.8mm
01:24 35.5 °F /  1.9 °C 33.9 °F /  1.1 °C 29.70in /  1005.6hPa NNE 3.0mph /  4.8km/h 10.0mph /  16.1km/h 94% 0.12in /  3mm
01:29 35.5 °F /  1.9 °C 33.9 °F /  1.1 °C 29.70in /  1005.6hPa NE 1.0mph /  1.6km/h 9.0mph /  14.5km/h 94% 0.13in /  3.3mm
01:34 35.5 °F /  1.9 °C 33.9 °F /  1.1 °C 29.70in /  1005.6hPa NNE 1.0mph /  1.6km/h 7.0mph /  11.3km/h 94% 0.14in /  3.6mm
01:39 35.5 °F /  1.9 °C 33.9 °F /  1.1 °C 29.70in /  1005.6hPa NE 1.0mph /  1.6km/h 7.0mph /  11.3km/h 94% 0.15in /  3.8mm
01:44 35.5 °F /  1.9 °C 33.9 °F /  1.1 °C 29.69in /  1005.3hPa North 2.0mph /  3.2km/h 7.0mph /  11.3km/h 94% 0.16in /  4.1mm
01:49 35.5 °F /  1.9 °C 33.9 °F /  1.1 °C 29.68in /  1005hPa NNE 1.0mph /  1.6km/h 9.0mph /  14.5km/h 94% 0.17in /  4.3mm
01:54 35.5 °F /  1.9 °C 33.9 °F /  1.1 °C 29.67in /  1004.6hPa NNE 2.0mph /  3.2km/h 9.0mph /  14.5km/h 94% 0.19in /  4.8mm
01:59 35.4 °F /  1.9 °C 33.8 °F /  1 °C 29.66in /  1004.3hPa NNE 2.0mph /  3.2km/h 9.0mph /  14.5km/h 94% 0.20in /  5.1mm
02:04 35.4 °F /  1.9 °C 33.8 °F /  1 °C 29.65in /  1003.9hPa NNE 1.0mph /  1.6km/h 8.0mph /  12.9km/h 94% 0.21in /  5.3mm
02:09 35.4 °F /  1.9 °C 33.8 °F /  1 °C 29.63in /  1003.3hPa NNE 1.0mph /  1.6km/h 11.0mph /  17.7km/h 94% 0.22in /  5.6mm
02:14 35.4 °F /  1.9 °C 33.8 °F /  1 °C 29.63in /  1003.3hPa NE 3.0mph /  4.8km/h 11.0mph /  17.7km/h 94% 0.23in /  5.8mm
02:19 35.4 °F /  1.9 °C 33.8 °F /  1 °C 29.63in /  1003.3hPa NNE 1.0mph /  1.6km/h 11.0mph /  17.7km/h 94% 0.23in /  5.8mm
02:29 35.4 °F /  1.9 °C 33.8 °F /  1 °C 29.62in /  1002.9hPa NE 3.0mph /  4.8km/h 11.0mph /  17.7km/h 94% 0.26in /  6.6mm
02:34 35.5 °F /  1.9 °C 33.9 °F /  1.1 °C 29.61in /  1002.6hPa NNE 2.0mph /  3.2km/h 11.0mph /  17.7km/h 94% 0.27in /  6.9mm
02:39 35.5 °F /  1.9 °C 33.9 °F /  1.1 °C 29.60in /  1002.3hPa NNE 5.0mph /  8km/h 11.0mph /  17.7km/h 94% 0.28in /  7.1mm
02:44 35.5 °F /  1.9 °C 33.9 °F /  1.1 °C 29.60in /  1002.3hPa NNE 3.0mph /  4.8km/h 10.0mph /  16.1km/h 94% 0.29in /  7.4mm
02:49 35.5 °F /  1.9 °C 33.9 °F /  1.1 °C 29.61in /  1002.6hPa NE 4.0mph /  6.4km/h 9.0mph /  14.5km/h 94% 0.30in /  7.6mm
02:54 35.5 °F /  1.9 °C 33.9 °F /  1.1 °C 29.60in /  1002.3hPa NE 2.0mph /  3.2km/h 8.0mph /  12.9km/h 94% 0.31in /  7.9mm
02:59 35.5 °F /  1.9 °C 33.9 °F /  1.1 °C 29.58in /  1001.6hPa NNE 2.0mph /  3.2km/h 7.0mph /  11.3km/h 94% 0.33in /  8.4mm
03:04 35.5 °F /  1.9 °C 33.9 °F /  1.1 °C 29.58in /  1001.6hPa NE 1.0mph /  1.6km/h 7.0mph /  11.3km/h 94% 0.33in /  8.4mm
03:09 35.5 °F /  1.9 °C 33.9 °F /  1.1 °C 29.58in /  1001.6hPa Calm   7.0mph /  11.3km/h 94% 0.35in /  8.9mm
03:14 35.6 °F /  2 °C 34.0 °F /  1.1 °C 29.57in /  1001.2hPa NNE 1.0mph /  1.6km/h 5.0mph /  8km/h 94% 0.37in /  9.4mm
03:19 35.6 °F /  2 °C 34.0 °F /  1.1 °C 29.56in /  1000.9hPa NNE 3.0mph /  4.8km/h 10.0mph /  16.1km/h 94% 0.39in /  9.9mm
03:24 35.6 °F /  2 °C 34.0 °F /  1.1 °C 29.56in /  1000.9hPa NNE 3.0mph /  4.8km/h 10.0mph /  16.1km/h 94% 0.39in /  9.9mm
03:29 35.7 °F /  2.1 °C 34.1 °F /  1.2 °C 29.55in /  1000.6hPa NNE 4.0mph /  6.4km/h 9.0mph /  14.5km/h 94% 0.40in /  10.2mm
03:35 35.7 °F /  2.1 °C 34.1 °F /  1.2 °C 29.53in /  999.9hPa NNE 1.0mph /  1.6km/h 8.0mph /  12.9km/h 94% 0.41in /  10.4mm
03:44 35.8 °F /  2.1 °C 34.2 °F /  1.2 °C 29.51in /  999.2hPa NNE 2.0mph /  3.2km/h 10.0mph /  16.1km/h 94% 0.42in /  10.7mm
03:49 35.8 °F /  2.1 °C 34.2 °F /  1.2 °C 29.51in /  999.2hPa ENE 1.0mph /  1.6km/h 7.0mph /  11.3km/h 94% 0.43in /  10.9mm
03:54 35.9 °F /  2.2 °C 34.3 °F /  1.3 °C 29.50in /  998.9hPa NE 1.0mph /  1.6km/h 9.0mph /  14.5km/h 94% 0.43in /  10.9mm
03:59 35.9 °F /  2.2 °C 34.3 °F /  1.3 °C 29.50in /  998.9hPa NE 1.0mph /  1.6km/h 9.0mph /  14.5km/h 94% 0.43in /  10.9mm
04:04 36.0 °F /  2.2 °C 34.4 °F /  1.3 °C 29.49in /  998.5hPa NNE 3.0mph /  4.8km/h 10.0mph /  16.1km/h 94% 0.44in /  11.2mm
04:09 36.1 °F /  2.3 °C 34.5 °F /  1.4 °C 29.48in /  998.2hPa NNE 1.0mph /  1.6km/h 10.0mph /  16.1km/h 94% 0.45in /  11.4mm
04:14 36.1 °F /  2.3 °C 34.5 °F /  1.4 °C 29.48in /  998.2hPa Calm   6.0mph /  9.7km/h 94% 0.45in /  11.4mm
04:20 36.1 °F /  2.3 °C 34.5 °F /  1.4 °C 29.47in /  997.9hPa NNE 1.0mph /  1.6km/h 5.0mph /  8km/h 94% 0.46in /  11.7mm
04:29 36.0 °F /  2.2 °C 34.4 °F /  1.3 °C 29.44in /  996.8hPa NNE 3.0mph /  4.8km/h 12.0mph /  19.3km/h 94% 0.48in /  12.2mm
04:34 36.0 °F /  2.2 °C 34.4 °F /  1.3 °C 29.43in /  996.5hPa North 3.0mph /  4.8km/h 8.0mph /  12.9km/h 94% 0.49in /  12.4mm
04:39 36.1 °F /  2.3 °C 34.5 °F /  1.4 °C 29.44in /  996.8hPa Calm   7.0mph /  11.3km/h 94% 0.51in /  13mm
04:49 36.3 °F /  2.4 °C 34.7 °F /  1.5 °C 29.45in /  997.2hPa Calm   4.0mph /  6.4km/h 94% 0.53in /  13.5mm
04:54 36.3 °F /  2.4 °C 34.7 °F /  1.5 °C 29.45in /  997.2hPa Calm     94% 0.54in /  13.7mm
04:59 36.4 °F /  2.4 °C 34.8 °F /  1.6 °C 29.44in /  996.8hPa Calm     94% 0.55in /  14mm
05:04 36.5 °F /  2.5 °C 34.9 °F /  1.6 °C 29.44in /  996.8hPa North 2.0mph /  3.2km/h 5.0mph /  8km/h 94% 0.56in /  14.2mm
05:09 36.8 °F /  2.7 °C 35.5 °F /  1.9 °C 29.44in /  996.8hPa NNE 3.0mph /  4.8km/h 7.0mph /  11.3km/h 95% 0.57in /  14.5mm
05:14 37.3 °F /  2.9 °C 36.0 °F /  2.2 °C 29.43in /  996.5hPa ENE 2.0mph /  3.2km/h 7.0mph /  11.3km/h 95% 0.57in /  14.5mm
05:19 37.6 °F /  3.1 °C 36.3 °F /  2.4 °C 29.43in /  996.5hPa North 1.0mph /  1.6km/h 7.0mph /  11.3km/h 95% 0.58in /  14.7mm
05:24 37.7 °F /  3.2 °C 36.4 °F /  2.4 °C 29.43in /  996.5hPa NNE 3.0mph /  4.8km/h 8.0mph /  12.9km/h 95% 0.59in /  15mm
05:29 37.8 °F /  3.2 °C 36.5 °F /  2.5 °C 29.43in /  996.5hPa NNE 1.0mph /  1.6km/h 8.0mph /  12.9km/h 95% 0.59in /  15mm
05:34 37.8 °F /  3.2 °C 36.5 °F /  2.5 °C 29.43in /  996.5hPa NE 2.0mph /  3.2km/h 9.0mph /  14.5km/h 95% 0.60in /  15.2mm
05:39 37.8 °F /  3.2 °C 36.5 °F /  2.5 °C 29.42in /  996.2hPa Calm   9.0mph /  14.5km/h 95% 0.61in /  15.5mm
05:44 37.8 °F /  3.2 °C 36.5 °F /  2.5 °C 29.43in /  996.5hPa NE 3.0mph /  4.8km/h 8.0mph /  12.9km/h 95% 0.61in /  15.5mm
05:49 37.9 °F /  3.3 °C 36.6 °F /  2.6 °C 29.42in /  996.2hPa Calm   8.0mph /  12.9km/h 95% 0.61in /  15.5mm
05:54 37.9 °F /  3.3 °C 36.6 °F /  2.6 °C 29.42in /  996.2hPa Calm   6.0mph /  9.7km/h 95% 0.61in /  15.5mm
05:59 37.9 °F /  3.3 °C 36.6 °F /  2.6 °C 29.42in /  996.2hPa NE 1.0mph /  1.6km/h 10.0mph /  16.1km/h 95% 0.61in /  15.5mm
06:04 38.0 °F /  3.3 °C 36.7 °F /  2.6 °C 29.42in /  996.2hPa NNW 2.0mph /  3.2km/h 10.0mph /  16.1km/h 95% 0.62in /  15.7mm
06:10 38.1 °F /  3.4 °C 36.8 °F /  2.7 °C 29.41in /  995.8hPa Calm   8.0mph /  12.9km/h 95% 0.62in /  15.7mm
06:19 38.2 °F /  3.4 °C 36.9 °F /  2.7 °C 29.41in /  995.8hPa NNE 4.0mph /  6.4km/h 7.0mph /  11.3km/h 95% 0.63in /  16mm
06:24 38.2 °F /  3.4 °C 36.9 °F /  2.7 °C 29.41in /  995.8hPa Calm   7.0mph /  11.3km/h 95% 0.63in /  16mm
06:29 38.2 °F /  3.4 °C 36.9 °F /  2.7 °C 29.40in /  995.5hPa NNE 1.0mph /  1.6km/h 6.0mph /  9.7km/h 95% 0.64in /  16.3mm
06:34 38.3 °F /  3.5 °C 37.0 °F /  2.8 °C 29.40in /  995.5hPa Calm   5.0mph /  8km/h 95% 0.64in /  16.3mm
06:39 38.3 °F /  3.5 °C 37.0 °F /  2.8 °C 29.40in /  995.5hPa Calm   5.0mph /  8km/h 95% 0.64in /  16.3mm
06:44 38.3 °F /  3.5 °C 37.0 °F /  2.8 °C 29.40in /  995.5hPa NNE 1.0mph /  1.6km/h 6.0mph /  9.7km/h 95% 0.65in /  16.5mm
06:49 38.3 °F /  3.5 °C 37.0 °F /  2.8 °C 29.40in /  995.5hPa ENE 1.0mph /  1.6km/h 6.0mph /  9.7km/h 95% 0.65in /  16.5mm
06:54 38.4 °F /  3.6 °C 37.1 °F /  2.8 °C 29.39in /  995.1hPa Calm   6.0mph /  9.7km/h 95% 0.65in /  16.5mm
06:59 38.4 °F /  3.6 °C 37.1 °F /  2.8 °C 29.39in /  995.1hPa Calm   3.0mph /  4.8km/h 95% 0.65in /  16.5mm
07:04 38.5 °F /  3.6 °C 37.2 °F /  2.9 °C 29.39in /  995.1hPa NNE 1.0mph /  1.6km/h 5.0mph /  8km/h 95% 0.65in /  16.5mm
07:09 38.6 °F /  3.7 °C 37.3 °F /  2.9 °C 29.39in /  995.1hPa Calm   5.0mph /  8km/h 95% 0.65in /  16.5mm
07:14 38.6 °F /  3.7 °C 37.3 °F /  2.9 °C 29.39in /  995.1hPa NE 1.0mph /  1.6km/h 4.0mph /  6.4km/h 95% 0.65in /  16.5mm
07:19 38.7 °F /  3.7 °C 37.4 °F /  3 °C 29.39in /  995.1hPa NE 1.0mph /  1.6km/h 4.0mph /  6.4km/h 95% 0.65in /  16.5mm
07:24 38.8 °F /  3.8 °C 37.5 °F /  3.1 °C 29.39in /  995.1hPa NNE 1.0mph /  1.6km/h 6.0mph /  9.7km/h 95% 0.65in /  16.5mm
07:29 38.9 °F /  3.8 °C 37.6 °F /  3.1 °C 29.39in /  995.1hPa NNE 2.0mph /  3.2km/h 6.0mph /  9.7km/h 95% 0.65in /  16.5mm
07:35 39.0 °F /  3.9 °C 37.7 °F /  3.2 °C 29.38in /  994.8hPa NNE 2.0mph /  3.2km/h 5.0mph /  8km/h 95% 0.65in /  16.5mm
07:44 39.3 °F /  4.1 °C 38.0 °F /  3.3 °C 29.38in /  994.8hPa NE 1.0mph /  1.6km/h 8.0mph /  12.9km/h 95% 0.65in /  16.5mm
07:49 39.4 °F /  4.1 °C 38.1 °F /  3.4 °C 29.37in /  994.5hPa NNE 1.0mph /  1.6km/h 7.0mph /  11.3km/h 95% 0.66in /  16.8mm
07:54 39.5 °F /  4.2 °C 38.2 °F /  3.4 °C 29.37in /  994.5hPa NNE 1.0mph /  1.6km/h 5.0mph /  8km/h 95% 0.66in /  16.8mm
07:59 39.6 °F /  4.2 °C 38.3 °F /  3.5 °C 29.36in /  994.1hPa Calm   4.0mph /  6.4km/h 95% 0.67in /  17mm
08:04 39.7 °F /  4.3 °C 38.4 °F /  3.6 °C 29.37in /  994.5hPa Calm   7.0mph /  11.3km/h 95% 0.67in /  17mm
08:09 39.8 °F /  4.3 °C 38.5 °F /  3.6 °C 29.36in /  994.1hPa Calm   7.0mph /  11.3km/h 95% 0.67in /  17mm
08:14 39.9 °F /  4.4 °C 38.6 °F /  3.7 °C 29.37in /  994.5hPa Calm   5.0mph /  8km/h 95% 0.68in /  17.3mm
08:19 39.9 °F /  4.4 °C 38.6 °F /  3.7 °C 29.36in /  994.1hPa Calm     95% 0.69in /  17.5mm
08:24 40.0 °F /  4.4 °C 38.7 °F /  3.7 °C 29.36in /  994.1hPa Calm     95% 0.70in /  17.8mm
08:29 40.0 °F /  4.4 °C 38.7 °F /  3.7 °C 29.36in /  994.1hPa Calm   1.0mph /  1.6km/h 95% 0.70in /  17.8mm
08:39 39.9 °F /  4.4 °C 38.6 °F /  3.7 °C 29.36in /  994.1hPa Calm   4.0mph /  6.4km/h 95% 0.72in /  18.3mm
08:50 39.9 °F /  4.4 °C 38.6 °F /  3.7 °C 29.35in /  993.8hPa Calm   4.0mph /  6.4km/h 95% 0.75in /  19.1mm
08:55 39.9 °F /  4.4 °C 38.6 °F /  3.7 °C 29.35in /  993.8hPa Calm   5.0mph /  8km/h 95% 0.78in /  19.8mm
09:04 39.9 °F /  4.4 °C 38.6 °F /  3.7 °C 29.35in /  993.8hPa Calm   4.0mph /  6.4km/h 95% 0.81in /  20.6mm
09:09 40.0 °F /  4.4 °C 38.7 °F /  3.7 °C 29.35in /  993.8hPa Calm   4.0mph /  6.4km/h 95% 0.82in /  20.8mm
09:14 40.1 °F /  4.5 °C 38.8 °F /  3.8 °C 29.34in /  993.5hPa Calm   5.0mph /  8km/h 95% 0.83in /  21.1mm
09:19 40.2 °F /  4.6 °C 38.9 °F /  3.8 °C 29.34in /  993.5hPa NNE 1.0mph /  1.6km/h 5.0mph /  8km/h 95% 0.83in /  21.1mm
09:24 40.4 °F /  4.7 °C 39.1 °F /  3.9 °C 29.34in /  993.5hPa NNE 1.0mph /  1.6km/h 4.0mph /  6.4km/h 95% 0.83in /  21.1mm
09:29 40.4 °F /  4.7 °C 39.1 °F /  3.9 °C 29.34in /  993.5hPa Calm   4.0mph /  6.4km/h 95% 0.84in /  21.3mm
09:34 40.5 °F /  4.7 °C 39.2 °F /  4 °C 29.34in /  993.5hPa Calm   1.0mph /  1.6km/h 95% 0.84in /  21.3mm
09:44 40.9 °F /  4.9 °C 39.6 °F /  4.2 °C 29.33in /  993.1hPa NNE 1.0mph /  1.6km/h 3.0mph /  4.8km/h 95% 0.85in /  21.6mm
09:49 41.2 °F /  5.1 °C 39.9 °F /  4.4 °C 29.33in /  993.1hPa NNE 1.0mph /  1.6km/h 4.0mph /  6.4km/h 95% 0.85in /  21.6mm
09:59 41.4 °F /  5.2 °C 40.1 °F /  4.5 °C 29.34in /  993.5hPa Calm   4.0mph /  6.4km/h 95% 0.85in /  21.6mm
10:04 41.4 °F /  5.2 °C 40.1 °F /  4.5 °C 29.33in /  993.1hPa Calm   3.0mph /  4.8km/h 95% 0.85in /  21.6mm
10:09 41.4 °F /  5.2 °C 40.1 °F /  4.5 °C 29.33in /  993.1hPa Calm   4.0mph /  6.4km/h 95% 0.85in /  21.6mm
10:14 41.3 °F /  5.2 °C 40.0 °F /  4.4 °C 29.33in /  993.1hPa Calm   4.0mph /  6.4km/h 95% 0.85in /  21.6mm
10:19 41.4 °F /  5.2 °C 40.1 °F /  4.5 °C 29.33in /  993.1hPa Calm   3.0mph /  4.8km/h 95% 0.86in /  21.8mm
10:24 41.5 °F /  5.3 °C 40.2 °F /  4.6 °C 29.33in /  993.1hPa Calm   3.0mph /  4.8km/h 95% 0.86in /  21.8mm
10:34 42.2 °F /  5.7 °C 40.9 °F /  4.9 °C 29.32in /  992.8hPa Calm   6.0mph /  9.7km/h 95% 0.86in /  21.8mm
10:39 42.4 °F /  5.8 °C 41.1 °F /  5.1 °C 29.32in /  992.8hPa NNE 1.0mph /  1.6km/h 6.0mph /  9.7km/h 95% 0.86in /  21.8mm
10:44 42.4 °F /  5.8 °C 41.1 °F /  5.1 °C 29.32in /  992.8hPa Calm   4.0mph /  6.4km/h 95% 0.86in /  21.8mm
10:49 42.5 °F /  5.8 °C 41.2 °F /  5.1 °C 29.31in /  992.4hPa Calm   1.0mph /  1.6km/h 95% 0.86in /  21.8mm
10:54 43.1 °F /  6.2 °C 41.8 °F /  5.4 °C 29.31in /  992.4hPa NNE 1.0mph /  1.6km/h 4.0mph /  6.4km/h 95% 0.86in /  21.8mm
10:59 43.7 °F /  6.5 °C 42.4 °F /  5.8 °C 29.30in /  992.1hPa Calm   4.0mph /  6.4km/h 95% 0.86in /  21.8mm
11:09 45.5 °F /  7.5 °C 44.4 °F /  6.9 °C 29.30in /  992.1hPa NNE 1.0mph /  1.6km/h 6.0mph /  9.7km/h 96% 0.86in /  21.8mm
11:14 45.7 °F /  7.6 °C 44.6 °F /  7 °C 29.31in /  992.4hPa NNE 1.0mph /  1.6km/h 6.0mph /  9.7km/h 96% 0.86in /  21.8mm
11:19 45.9 °F /  7.7 °C 44.5 °F /  6.9 °C 29.30in /  992.1hPa ENE 2.0mph /  3.2km/h 6.0mph /  9.7km/h 95% 0.86in /  21.8mm
11:24 46.4 °F /  8 °C 45.3 °F /  7.4 °C 29.30in /  992.1hPa Calm   6.0mph /  9.7km/h 96% 0.86in /  21.8mm
11:29 46.5 °F /  8.1 °C 45.4 °F /  7.4 °C 29.30in /  992.1hPa NE 1.0mph /  1.6km/h 6.0mph /  9.7km/h 96% 0.86in /  21.8mm
11:39 47.6 °F /  8.7 °C 46.5 °F /  8.1 °C 29.30in /  992.1hPa Calm   4.0mph /  6.4km/h 96% 0.86in /  21.8mm
11:44 47.8 °F /  8.8 °C 46.7 °F /  8.2 °C 29.29in /  991.8hPa NE 3.0mph /  4.8km/h 5.0mph /  8km/h 96% 0.86in /  21.8mm
11:49 48.1 °F /  8.9 °C 46.7 °F /  8.2 °C 29.29in /  991.8hPa Calm   5.0mph /  8km/h 95% 0.86in /  21.8mm
11:55 49.0 °F /  9.4 °C 47.6 °F /  8.7 °C 29.29in /  991.8hPa Calm   5.0mph /  8km/h 95% 0.86in /  21.8mm
12:05 49.5 °F /  9.7 °C 48.1 °F /  8.9 °C 29.29in /  991.8hPa NNE 1.0mph /  1.6km/h 5.0mph /  8km/h 95% 0.86in /  21.8mm
12:14 50.8 °F /  10.4 °C 49.1 °F /  9.5 °C 29.29in /  991.8hPa Calm   2.0mph /  3.2km/h 94% 0.86in /  21.8mm
12:19 51.0 °F /  10.6 °C 48.5 °F /  9.2 °C 29.29in /  991.8hPa NE 1.0mph /  1.6km/h 5.0mph /  8km/h 91% 0.86in /  21.8mm
12:29 51.5 °F /  10.8 °C 47.8 °F /  8.8 °C 29.28in /  991.4hPa East 1.0mph /  1.6km/h 5.0mph /  8km/h 87% 0.86in /  21.8mm
12:34 51.6 °F /  10.9 °C 47.6 °F /  8.7 °C 29.28in /  991.4hPa Calm   5.0mph /  8km/h 86% 0.86in /  21.8mm
12:39 52.0 °F /  11.1 °C 48.3 °F /  9.1 °C 29.28in /  991.4hPa Calm   4.0mph /  6.4km/h 87% 0.86in /  21.8mm
12:50 53.1 °F /  11.7 °C 48.7 °F /  9.3 °C 29.27in /  991.1hPa Calm   3.0mph /  4.8km/h 85% 0.86in /  21.8mm
12:59 54.1 °F /  12.3 °C 49.1 °F /  9.5 °C 29.27in /  991.1hPa North 2.0mph /  3.2km/h 5.0mph /  8km/h 83% 0.86in /  21.8mm
13:04 54.4 °F /  12.4 °C 49.0 °F /  9.4 °C 29.27in /  991.1hPa Calm   5.0mph /  8km/h 82% 0.86in /  21.8mm
13:09 55.3 °F /  12.9 °C 49.9 °F /  9.9 °C 29.27in /  991.1hPa Calm   3.0mph /  4.8km/h 82% 0.86in /  21.8mm
13:14 55.7 °F /  13.2 °C 49.6 °F /  9.8 °C 29.27in /  991.1hPa North 1.0mph /  1.6km/h 4.0mph /  6.4km/h 80% 0.86in /  21.8mm
13:19 55.8 °F /  13.2 °C 50.1 °F /  10.1 °C 29.27in /  991.1hPa NW 3.0mph /  4.8km/h 5.0mph /  8km/h 81% 0.86in /  21.8mm
13:24 54.9 °F /  12.7 °C 48.5 °F /  9.2 °C 29.27in /  991.1hPa WNW 3.0mph /  4.8km/h 5.0mph /  8km/h 79% 0.86in /  21.8mm
13:29 53.8 °F /  12.1 °C 48.1 °F /  8.9 °C 29.27in /  991.1hPa West 1.0mph /  1.6km/h 6.0mph /  9.7km/h 81% 0.86in /  21.8mm
13:34 52.9 °F /  11.6 °C 47.2 °F /  8.4 °C 29.27in /  991.1hPa NW 5.0mph /  8km/h 7.0mph /  11.3km/h 81% 0.86in /  21.8mm
13:39 52.4 °F /  11.3 °C 47.1 °F /  8.4 °C 29.27in /  991.1hPa NW 1.0mph /  1.6km/h 7.0mph /  11.3km/h 82% 0.86in /  21.8mm
13:44 52.1 °F /  11.2 °C 47.1 °F /  8.4 °C 29.27in /  991.1hPa WNW 1.0mph /  1.6km/h 6.0mph /  9.7km/h 83% 0.86in /  21.8mm
13:49 52.1 °F /  11.2 °C 47.4 °F /  8.6 °C 29.27in /  991.1hPa WNW 3.0mph /  4.8km/h 6.0mph /  9.7km/h 84% 0.86in /  21.8mm
13:54 52.2 °F /  11.2 °C 47.5 °F /  8.6 °C 29.27in /  991.1hPa WNW 2.0mph /  3.2km/h 5.0mph /  8km/h 84% 0.86in /  21.8mm
13:59 52.6 °F /  11.4 °C 47.9 °F /  8.8 °C 29.27in /  991.1hPa Calm   5.0mph /  8km/h 84% 0.86in /  21.8mm
14:04 52.4 °F /  11.3 °C 47.4 °F /  8.6 °C 29.26in /  990.7hPa WNW 4.0mph /  6.4km/h 6.0mph /  9.7km/h 83% 0.86in /  21.8mm
14:09 52.6 °F /  11.4 °C 47.6 °F /  8.7 °C 29.26in /  990.7hPa NW 4.0mph /  6.4km/h 7.0mph /  11.3km/h 83% 0.86in /  21.8mm
14:14 53.0 °F /  11.7 °C 48.3 °F /  9.1 °C 29.26in /  990.7hPa NW 1.0mph /  1.6km/h 7.0mph /  11.3km/h 84% 0.86in /  21.8mm
14:19 53.5 °F /  11.9 °C 48.1 °F /  8.9 °C 29.26in /  990.7hPa NW 1.0mph /  1.6km/h 7.0mph /  11.3km/h 82% 0.86in /  21.8mm
14:24 53.5 °F /  11.9 °C 47.8 °F /  8.8 °C 29.26in /  990.7hPa WNW 2.0mph /  3.2km/h 5.0mph /  8km/h 81% 0.86in /  21.8mm
14:29 53.6 °F /  12 °C 48.2 °F /  9 °C 29.25in /  990.4hPa WNW 3.0mph /  4.8km/h 5.0mph /  8km/h 82% 0.86in /  21.8mm
14:34 53.6 °F /  12 °C 48.2 °F /  9 °C 29.25in /  990.4hPa WNW 2.0mph /  3.2km/h 7.0mph /  11.3km/h 82% 0.86in /  21.8mm
14:39 53.9 °F /  12.2 °C 48.5 °F /  9.2 °C 29.25in /  990.4hPa Calm   7.0mph /  11.3km/h 82% 0.86in /  21.8mm
14:49 53.7 °F /  12.1 °C 48.3 °F /  9.1 °C 29.25in /  990.4hPa WNW 2.0mph /  3.2km/h 8.0mph /  12.9km/h 82% 0.86in /  21.8mm
14:59 54.0 °F /  12.2 °C 48.3 °F /  9.1 °C 29.24in /  990.1hPa NW 3.0mph /  4.8km/h 7.0mph /  11.3km/h 81% 0.86in /  21.8mm
15:04 54.1 °F /  12.3 °C 48.7 °F /  9.3 °C 29.24in /  990.1hPa NW 3.0mph /  4.8km/h 8.0mph /  12.9km/h 82% 0.86in /  21.8mm
15:09 54.4 °F /  12.4 °C 48.7 °F /  9.3 °C 29.24in /  990.1hPa Calm   8.0mph /  12.9km/h 81% 0.86in /  21.8mm
15:14 54.6 °F /  12.6 °C 48.6 °F /  9.2 °C 29.24in /  990.1hPa NW 1.0mph /  1.6km/h 5.0mph /  8km/h 80% 0.86in /  21.8mm
15:19 54.8 °F /  12.7 °C 49.1 °F /  9.5 °C 29.24in /  990.1hPa NW 1.0mph /  1.6km/h 5.0mph /  8km/h 81% 0.86in /  21.8mm
15:24 54.8 °F /  12.7 °C 48.4 °F /  9.1 °C 29.24in /  990.1hPa Calm   5.0mph /  8km/h 79% 0.86in /  21.8mm
15:29 55.0 °F /  12.8 °C 49.3 °F /  9.6 °C 29.23in /  989.7hPa Calm   4.0mph /  6.4km/h 81% 0.86in /  21.8mm
15:34 55.0 °F /  12.8 °C 48.6 °F /  9.2 °C 29.23in /  989.7hPa WNW 5.0mph /  8km/h 8.0mph /  12.9km/h 79% 0.86in /  21.8mm
15:39 54.2 °F /  12.3 °C 48.2 °F /  9 °C 29.23in /  989.7hPa WNW 2.0mph /  3.2km/h 8.0mph /  12.9km/h 80% 0.86in /  21.8mm
15:44 54.1 °F /  12.3 °C 48.1 °F /  8.9 °C 29.23in /  989.7hPa Calm   7.0mph /  11.3km/h 80% 0.86in /  21.8mm
15:49 53.9 °F /  12.2 °C 47.9 °F /  8.8 °C 29.23in /  989.7hPa Calm   6.0mph /  9.7km/h 80% 0.86in /  21.8mm
15:54 53.8 °F /  12.1 °C 48.1 °F /  8.9 °C 29.23in /  989.7hPa WNW 2.0mph /  3.2km/h 6.0mph /  9.7km/h 81% 0.86in /  21.8mm
15:59 53.7 °F /  12.1 °C 48.0 °F /  8.9 °C 29.22in /  989.4hPa NW 1.0mph /  1.6km/h 5.0mph /  8km/h 81% 0.86in /  21.8mm
16:04 53.8 °F /  12.1 °C 48.4 °F /  9.1 °C 29.22in /  989.4hPa NW 1.0mph /  1.6km/h 5.0mph /  8km/h 82% 0.86in /  21.8mm
16:09 53.5 °F /  11.9 °C 47.8 °F /  8.8 °C 29.23in /  989.7hPa WNW 1.0mph /  1.6km/h 7.0mph /  11.3km/h 81% 0.86in /  21.8mm
16:14 53.2 °F /  11.8 °C 47.9 °F /  8.8 °C 29.23in /  989.7hPa NW 1.0mph /  1.6km/h 8.0mph /  12.9km/h 82% 0.86in /  21.8mm
16:19 53.0 °F /  11.7 °C 47.7 °F /  8.7 °C 29.23in /  989.7hPa WNW 1.0mph /  1.6km/h 8.0mph /  12.9km/h 82% 0.86in /  21.8mm
16:24 52.6 °F /  11.4 °C 47.3 °F /  8.5 °C 29.23in /  989.7hPa West 4.0mph /  6.4km/h 6.0mph /  9.7km/h 82% 0.86in /  21.8mm
16:34 51.7 °F /  10.9 °C 46.4 °F /  8 °C 29.22in /  989.4hPa NW 4.0mph /  6.4km/h 8.0mph /  12.9km/h 82% 0.86in /  21.8mm
16:39 51.4 °F /  10.8 °C 46.7 °F /  8.2 °C 29.22in /  989.4hPa WNW 2.0mph /  3.2km/h 8.0mph /  12.9km/h 84% 0.86in /  21.8mm
16:49 51.2 °F /  10.7 °C 46.5 °F /  8.1 °C 29.22in /  989.4hPa Calm   6.0mph /  9.7km/h 84% 0.86in /  21.8mm
16:59 51.7 °F /  10.9 °C 47.3 °F /  8.5 °C 29.22in /  989.4hPa Calm   1.0mph /  1.6km/h 85% 0.86in /  21.8mm
17:04 51.9 °F /  11.1 °C 47.2 °F /  8.4 °C 29.22in /  989.4hPa WNW 1.0mph /  1.6km/h 5.0mph /  8km/h 84% 0.86in /  21.8mm
17:09 51.7 °F /  10.9 °C 47.0 °F /  8.3 °C 29.22in /  989.4hPa NW 1.0mph /  1.6km/h 5.0mph /  8km/h 84% 0.86in /  21.8mm
17:19 51.3 °F /  10.7 °C 46.6 °F /  8.1 °C 29.22in /  989.4hPa Calm   4.0mph /  6.4km/h 84% 0.86in /  21.8mm
17:24 51.3 °F /  10.7 °C 46.9 °F /  8.3 °C 29.21in /  989.1hPa Calm   1.0mph /  1.6km/h 85% 0.86in /  21.8mm
17:29 51.4 °F /  10.8 °C 47.0 °F /  8.3 °C 29.21in /  989.1hPa Calm   1.0mph /  1.6km/h 85% 0.86in /  21.8mm
17:34 51.5 °F /  10.8 °C 47.1 °F /  8.4 °C 29.20in /  988.7hPa Calm   1.0mph /  1.6km/h 85% 0.86in /  21.8mm
17:39 51.5 °F /  10.8 °C 47.1 °F /  8.4 °C 29.20in /  988.7hPa Calm   1.0mph /  1.6km/h 85% 0.86in /  21.8mm
17:44 51.6 °F /  10.9 °C 47.6 °F /  8.7 °C 29.20in /  988.7hPa Calm   1.0mph /  1.6km/h 86% 0.86in /  21.8mm
17:49 51.8 °F /  11 °C 47.7 °F /  8.7 °C 29.20in /  988.7hPa Calm   2.0mph /  3.2km/h 86% 0.86in /  21.8mm
17:54 52.0 °F /  11.1 °C 47.9 °F /  8.8 °C 29.20in /  988.7hPa Calm   2.0mph /  3.2km/h 86% 0.86in /  21.8mm
17:59 52.3 °F /  11.3 °C 48.2 °F /  9 °C 29.20in /  988.7hPa Calm   1.0mph /  1.6km/h 86% 0.86in /  21.8mm
18:04 52.7 °F /  11.5 °C 48.9 °F /  9.4 °C 29.20in /  988.7hPa ENE 1.0mph /  1.6km/h 3.0mph /  4.8km/h 87% 0.86in /  21.8mm
18:09 53.1 °F /  11.7 °C 49.0 °F /  9.4 °C 29.19in /  988.4hPa Calm   3.0mph /  4.8km/h 86% 0.86in /  21.8mm
18:14 53.5 °F /  11.9 °C 49.4 °F /  9.7 °C 29.19in /  988.4hPa Calm   3.0mph /  4.8km/h 86% 0.86in /  21.8mm
18:19 53.8 °F /  12.1 °C 49.4 °F /  9.7 °C 29.19in /  988.4hPa ENE 2.0mph /  3.2km/h 5.0mph /  8km/h 85% 0.86in /  21.8mm
18:24 53.8 °F /  12.1 °C 49.1 °F /  9.5 °C 29.19in /  988.4hPa Calm   5.0mph /  8km/h 84% 0.86in /  21.8mm
18:30 53.8 °F /  12.1 °C 49.1 °F /  9.5 °C 29.19in /  988.4hPa Calm   2.0mph /  3.2km/h 84% 0.86in /  21.8mm
18:39 53.7 °F /  12.1 °C 48.7 °F /  9.3 °C 29.19in /  988.4hPa NE 1.0mph /  1.6km/h 5.0mph /  8km/h 83% 0.86in /  21.8mm
18:44 53.5 °F /  11.9 °C 48.8 °F /  9.3 °C 29.19in /  988.4hPa Calm   5.0mph /  8km/h 84% 0.86in /  21.8mm
18:49 53.2 °F /  11.8 °C 48.5 °F /  9.2 °C 29.19in /  988.4hPa Calm   1.0mph /  1.6km/h 84% 0.86in /  21.8mm
18:54 53.0 °F /  11.7 °C 48.3 °F /  9.1 °C 29.19in /  988.4hPa Calm     84% 0.86in /  21.8mm
18:59 52.8 °F /  11.6 °C 48.4 °F /  9.1 °C 29.19in /  988.4hPa Calm     85% 0.86in /  21.8mm
19:09 52.5 °F /  11.4 °C 48.4 °F /  9.1 °C 29.19in /  988.4hPa Calm   2.0mph /  3.2km/h 86% 0.86in /  21.8mm
19:14 52.4 °F /  11.3 °C 48.3 °F /  9.1 °C 29.19in /  988.4hPa Calm     86% 0.86in /  21.8mm
19:19 52.2 °F /  11.2 °C 48.1 °F /  8.9 °C 29.19in /  988.4hPa Calm     86% 0.87in /  22.1mm
19:24 51.9 °F /  11.1 °C 47.8 °F /  8.8 °C 29.19in /  988.4hPa NE 1.0mph /  1.6km/h 4.0mph /  6.4km/h 86% 0.87in /  22.1mm
19:29 51.5 °F /  10.8 °C 47.5 °F /  8.6 °C 29.19in /  988.4hPa Calm   4.0mph /  6.4km/h 86% 0.87in /  22.1mm
19:40 50.2 °F /  10.1 °C 46.5 °F /  8.1 °C 29.18in /  988hPa Calm   2.0mph /  3.2km/h 87% 0.87in /  22.1mm
19:50 49.4 °F /  9.7 °C 46.0 °F /  7.8 °C 29.17in /  987.7hPa Calm   1.0mph /  1.6km/h 88% 0.87in /  22.1mm
19:59 49.1 °F /  9.5 °C 46.0 °F /  7.8 °C 29.18in /  988hPa Calm   2.0mph /  3.2km/h 89% 0.87in /  22.1mm
20:04 49.4 °F /  9.7 °C 46.6 °F /  8.1 °C 29.17in /  987.7hPa Calm   2.0mph /  3.2km/h 90% 0.87in /  22.1mm
20:09 49.6 °F /  9.8 °C 47.1 °F /  8.4 °C 29.18in /  988hPa Calm   1.0mph /  1.6km/h 91% 0.87in /  22.1mm
20:14 49.5 °F /  9.7 °C 46.7 °F /  8.2 °C 29.17in /  987.7hPa Calm   1.0mph /  1.6km/h 90% 0.87in /  22.1mm
20:19 49.0 °F /  9.4 °C 46.2 °F /  7.9 °C 29.17in /  987.7hPa Calm     90% 0.87in /  22.1mm
20:24 48.9 °F /  9.4 °C 46.4 °F /  8 °C 29.17in /  987.7hPa NE 1.0mph /  1.6km/h 3.0mph /  4.8km/h 91% 0.87in /  22.1mm
20:29 49.4 °F /  9.7 °C 47.2 °F /  8.4 °C 29.17in /  987.7hPa Calm   3.0mph /  4.8km/h 92% 0.87in /  22.1mm
20:39 50.9 °F /  10.5 °C 49.2 °F /  9.6 °C 29.18in /  988hPa Calm   3.0mph /  4.8km/h 94% 0.87in /  22.1mm
20:44 51.2 °F /  10.7 °C 49.5 °F /  9.7 °C 29.18in /  988hPa Calm   3.0mph /  4.8km/h 94% 0.87in /  22.1mm
20:49 51.4 °F /  10.8 °C 49.7 °F /  9.8 °C 29.19in /  988.4hPa ESE 2.0mph /  3.2km/h 10.0mph /  16.1km/h 94% 0.87in /  22.1mm
20:55 51.8 °F /  11 °C 50.1 °F /  10.1 °C 29.19in /  988.4hPa SW 8.0mph /  12.9km/h 16.0mph /  25.7km/h 94% 0.87in /  22.1mm
21:04 47.8 °F /  8.8 °C 45.0 °F /  7.2 °C 29.21in /  989.1hPa SW 5.0mph /  8km/h 10.0mph /  16.1km/h 90% 0.87in /  22.1mm
21:10 46.5 °F /  8.1 °C 43.7 °F /  6.5 °C 29.21in /  989.1hPa SW 3.0mph /  4.8km/h 10.0mph /  16.1km/h 90% 0.87in /  22.1mm
21:19 45.9 °F /  7.7 °C 43.4 °F /  6.3 °C 29.20in /  988.7hPa Calm   4.0mph /  6.4km/h 91% 0.87in /  22.1mm
21:24 46.3 °F /  7.9 °C 44.1 °F /  6.7 °C 29.21in /  989.1hPa SSW 1.0mph /  1.6km/h 8.0mph /  12.9km/h 92% 0.87in /  22.1mm
21:29 46.7 °F /  8.2 °C 44.8 °F /  7.1 °C 29.21in /  989.1hPa SSW 4.0mph /  6.4km/h 8.0mph /  12.9km/h 93% 0.87in /  22.1mm
21:34 46.8 °F /  8.2 °C 44.9 °F /  7.2 °C 29.21in /  989.1hPa SW 2.0mph /  3.2km/h 7.0mph /  11.3km/h 93% 0.87in /  22.1mm
21:39 46.7 °F /  8.2 °C 44.8 °F /  7.1 °C 29.21in /  989.1hPa SW 4.0mph /  6.4km/h 7.0mph /  11.3km/h 93% 0.87in /  22.1mm
21:44 46.6 °F /  8.1 °C 44.7 °F /  7.1 °C 29.22in /  989.4hPa SW 3.0mph /  4.8km/h 7.0mph /  11.3km/h 93% 0.87in /  22.1mm
21:49 46.4 °F /  8 °C 44.5 °F /  6.9 °C 29.23in /  989.7hPa SSW 4.0mph /  6.4km/h 9.0mph /  14.5km/h 93% 0.87in /  22.1mm
21:54 46.3 °F /  7.9 °C 44.4 °F /  6.9 °C 29.23in /  989.7hPa SSW 4.0mph /  6.4km/h 9.0mph /  14.5km/h 93% 0.87in /  22.1mm
21:59 46.2 °F /  7.9 °C 44.3 °F /  6.8 °C 29.22in /  989.4hPa SSW 3.0mph /  4.8km/h 8.0mph /  12.9km/h 93% 0.87in /  22.1mm
22:04 46.0 °F /  7.8 °C 44.1 °F /  6.7 °C 29.22in /  989.4hPa SW 4.0mph /  6.4km/h 8.0mph /  12.9km/h 93% 0.87in /  22.1mm
22:09 45.9 °F /  7.7 °C 44.0 °F /  6.7 °C 29.22in /  989.4hPa Calm   8.0mph /  12.9km/h 93% 0.87in /  22.1mm
22:14 45.9 °F /  7.7 °C 44.0 °F /  6.7 °C 29.23in /  989.7hPa SSW 1.0mph /  1.6km/h 8.0mph /  12.9km/h 93% 0.87in /  22.1mm
22:19 45.8 °F /  7.7 °C 43.9 °F /  6.6 °C 29.23in /  989.7hPa SSW 1.0mph /  1.6km/h 8.0mph /  12.9km/h 93% 0.87in /  22.1mm
22:24 45.8 °F /  7.7 °C 43.9 °F /  6.6 °C 29.22in /  989.4hPa Calm   7.0mph /  11.3km/h 93% 0.87in /  22.1mm
22:34 45.8 °F /  7.7 °C 43.9 °F /  6.6 °C 29.23in /  989.7hPa SSW 1.0mph /  1.6km/h 5.0mph /  8km/h 93% 0.87in /  22.1mm
22:39 45.9 °F /  7.7 °C 44.3 °F /  6.8 °C 29.24in /  990.1hPa SSW 1.0mph /  1.6km/h 5.0mph /  8km/h 94% 0.87in /  22.1mm
22:44 46.0 °F /  7.8 °C 44.4 °F /  6.9 °C 29.24in /  990.1hPa Calm   7.0mph /  11.3km/h 94% 0.87in /  22.1mm
22:49 46.1 °F /  7.8 °C 44.5 °F /  6.9 °C 29.24in /  990.1hPa Calm   7.0mph /  11.3km/h 94% 0.87in /  22.1mm
22:54 46.1 °F /  7.8 °C 44.5 °F /  6.9 °C 29.23in /  989.7hPa Calm   3.0mph /  4.8km/h 94% 0.87in /  22.1mm
22:59 46.2 °F /  7.9 °C 44.6 °F /  7 °C 29.24in /  990.1hPa Calm     94% 0.87in /  22.1mm
23:04 46.2 °F /  7.9 °C 44.6 °F /  7 °C 29.24in /  990.1hPa Calm     94% 0.87in /  22.1mm
23:09 46.4 °F /  8 °C 44.8 °F /  7.1 °C 29.24in /  990.1hPa South 1.0mph /  1.6km/h 5.0mph /  8km/h 94% 0.87in /  22.1mm
23:14 46.4 °F /  8 °C 44.8 °F /  7.1 °C 29.24in /  990.1hPa Calm   5.0mph /  8km/h 94% 0.87in /  22.1mm
23:19 46.4 °F /  8 °C 44.8 °F /  7.1 °C 29.24in /  990.1hPa SW 1.0mph /  1.6km/h 6.0mph /  9.7km/h 94% 0.87in /  22.1mm
23:24 46.3 °F /  7.9 °C 44.7 °F /  7.1 °C 29.23in /  989.7hPa SSE 1.0mph /  1.6km/h 6.0mph /  9.7km/h 94% 0.87in /  22.1mm
23:29 46.2 °F /  7.9 °C 44.6 °F /  7 °C 29.23in /  989.7hPa SSW 2.0mph /  3.2km/h 8.0mph /  12.9km/h 94% 0.87in /  22.1mm
23:34 46.2 °F /  7.9 °C 44.6 °F /  7 °C 29.23in /  989.7hPa Calm   8.0mph /  12.9km/h 94% 0.87in /  22.1mm
23:45 45.9 °F /  7.7 °C 44.0 °F /  6.7 °C 29.22in /  989.4hPa Calm   5.0mph /  8km/h 93% 0.87in /  22.1mm
23:54 45.8 °F /  7.7 °C 43.6 °F /  6.4 °C 29.21in /  989.1hPa SSW 4.0mph /  6.4km/h 7.0mph /  11.3km/h 92% 0.87in /  22.1mm
23:59 45.8 °F /  7.7 °C 43.0 °F /  6.1 °C 29.20in /  988.7hPa SW 3.0mph /  4.8km/h 7.0mph /  11.3km/h 90% 0.87in /  22.1mm
Westford Weather
Compliments of Weather Underground

 
 
Current Radar Loop:

Copyright © WestfordWeather.net 2007-2014. All rights reserved.